TimeCST,TemperatureF,Dew PointF,Humidity,Sea Level PressureIn,VisibilityMPH,Wind Direction,Wind SpeedMPH,Gust SpeedMPH,PrecipitationIn,Events,Conditions,WindDirDegrees,DateUTC
12:15 AM,33.8,32.0,93,29.81,4.0,NE,8.1,-,N/A,Rain,Light Rain,50,2013-12-20 06:15:00
12:35 AM,33.8,32.0,93,29.81,5.0,NE,9.2,-,N/A,,Overcast,50,2013-12-20 06:35:00
12:55 AM,33.8,32.0,93,29.80,5.0,NE,11.5,-,N/A,,Overcast,50,2013-12-20 06:55:00
1:15 AM,33.8,32.0,93,29.80,7.0,NE,9.2,-,N/A,,Overcast,50,2013-12-20 07:15:00
1:35 AM,33.8,32.0,93,29.80,5.0,NNE,9.2,-,N/A,,Overcast,20,2013-12-20 07:35:00
1:55 AM,31.5,29.8,94,29.80,5.0,NNE,9.2,-,N/A,,Overcast,20,2013-12-20 07:55:00
2:15 AM,31.5,29.8,94,29.81,7.0,NNE,8.1,-,N/A,,Overcast,20,2013-12-20 08:15:00
2:35 AM,31.5,29.8,94,29.81,5.0,NNE,6.9,-,N/A,,Overcast,20,2013-12-20 08:35:00
2:55 AM,29.7,27.9,93,29.82,5.0,North,9.2,-,N/A,,Overcast,10,2013-12-20 08:55:00
3:15 AM,28.8,27.0,93,29.83,3.0,NNE,9.2,-,N/A,,Overcast,20,2013-12-20 09:15:00
3:35 AM,27.5,25.7,93,29.84,5.0,NNE,5.8,-,N/A,,Overcast,20,2013-12-20 09:35:00
3:55 AM,26.6,24.8,93,29.82,5.0,NNE,9.2,-,N/A,,Overcast,20,2013-12-20 09:55:00
4:15 AM,26.2,24.4,93,29.83,7.0,NNE,9.2,-,N/A,,Overcast,20,2013-12-20 10:15:00
4:35 AM,25.9,24.1,93,29.83,10.0,NNE,9.2,-,N/A,,Overcast,20,2013-12-20 10:35:00
4:55 AM,25.7,23.9,93,29.82,10.0,NNE,10.4,-,N/A,,Overcast,30,2013-12-20 10:55:00
5:15 AM,26.2,24.4,93,29.82,5.0,NNE,9.2,-,N/A,,Overcast,30,2013-12-20 11:15:00
5:35 AM,26.2,24.4,93,29.82,7.0,NNE,10.4,-,N/A,,Overcast,30,2013-12-20 11:35:00
5:55 AM,25.7,23.7,92,29.82,10.0,NNE,9.2,-,N/A,,Overcast,30,2013-12-20 11:55:00
6:15 AM,25.3,23.0,91,29.82,10.0,NNE,9.2,-,N/A,,Overcast,30,2013-12-20 12:15:00
6:35 AM,25.2,23.0,91,29.83,10.0,NNE,9.2,-,N/A,,Overcast,30,2013-12-20 12:35:00
6:55 AM,25.0,22.8,91,29.84,10.0,NNE,8.1,-,N/A,,Overcast,30,2013-12-20 12:55:00
7:15 AM,25.0,22.8,91,29.83,10.0,NNE,8.1,-,N/A,,Overcast,30,2013-12-20 13:15:00
7:35 AM,25.2,23.0,91,29.82,10.0,NE,8.1,-,N/A,,Overcast,40,2013-12-20 13:35:00
7:55 AM,25.3,23.0,91,29.84,10.0,NE,8.1,-,N/A,,Overcast,40,2013-12-20 13:55:00
8:15 AM,25.5,23.4,92,29.84,10.0,NNE,8.1,-,N/A,,Overcast,30,2013-12-20 14:15:00
8:35 AM,25.3,23.4,92,29.83,7.0,NE,9.2,-,N/A,,Overcast,40,2013-12-20 14:35:00
8:55 AM,25.3,23.4,92,29.84,7.0,NE,9.2,-,N/A,,Overcast,40,2013-12-20 14:55:00
9:15 AM,26.2,24.4,93,29.83,7.0,NE,8.1,-,N/A,,Overcast,40,2013-12-20 15:15:00
9:35 AM,25.7,23.9,93,29.84,10.0,NE,6.9,-,N/A,,Overcast,40,2013-12-20 15:35:00
9:55 AM,26.6,24.6,92,29.84,7.0,NE,8.1,-,N/A,,Overcast,40,2013-12-20 15:55:00
10:15 AM,26.2,24.3,92,29.85,10.0,NNE,6.9,-,N/A,,Overcast,30,2013-12-20 16:15:00
10:35 AM,27.1,25.2,92,29.85,4.0,NE,5.8,-,N/A,,Overcast,40,2013-12-20 16:35:00
10:55 AM,27.5,25.5,92,29.84,5.0,NNE,6.9,-,N/A,,Overcast,30,2013-12-20 16:55:00
11:15 AM,27.3,25.3,92,29.82,10.0,NE,8.1,-,N/A,,Overcast,40,2013-12-20 17:15:00
11:35 AM,27.3,25.3,92,29.81,10.0,NE,6.9,-,N/A,,Overcast,40,2013-12-20 17:35:00
11:55 AM,27.5,25.5,92,29.82,10.0,NNE,5.8,-,N/A,,Overcast,30,2013-12-20 17:55:00
12:15 PM,27.5,25.5,92,29.81,7.0,NNE,5.8,-,N/A,,Overcast,30,2013-12-20 18:15:00
12:35 PM,27.5,25.7,93,29.80,3.0,NNE,5.8,-,N/A,,Overcast,30,2013-12-20 18:35:00
12:55 PM,27.3,25.5,93,29.79,3.0,North,5.8,-,N/A,,Overcast,10,2013-12-20 18:55:00
1:15 PM,27.0,25.2,93,29.79,3.0,NNE,6.9,-,N/A,,Overcast,30,2013-12-20 19:15:00
1:35 PM,27.3,25.5,93,29.79,5.0,NNE,5.8,-,N/A,,Overcast,30,2013-12-20 19:35:00
1:55 PM,28.2,26.4,93,29.78,3.0,NNE,5.8,-,N/A,,Overcast,20,2013-12-20 19:55:00
2:15 PM,27.7,25.9,93,29.77,2.5,NNE,6.9,-,N/A,,Overcast,20,2013-12-20 20:15:00
2:35 PM,27.5,25.7,93,29.78,4.0,NNE,4.6,-,N/A,,Overcast,20,2013-12-20 20:35:00
2:55 PM,27.5,25.7,93,29.78,4.0,North,3.5,-,N/A,,Overcast,10,2013-12-20 20:55:00
3:15 PM,27.5,25.7,93,29.79,1.8,North,4.6,-,N/A,,Overcast,10,2013-12-20 21:15:00
3:35 PM,27.3,25.7,94,29.80,1.8,North,4.6,-,N/A,,Overcast,360,2013-12-20 21:35:00
3:55 PM,27.5,25.7,93,29.80,1.5,NNE,5.8,-,N/A,,Overcast,20,2013-12-20 21:55:00
4:15 PM,27.5,25.7,93,29.81,1.8,NNE,5.8,-,N/A,,Overcast,20,2013-12-20 22:15:00
4:35 PM,28.6,27.0,94,29.81,2.5,North,4.6,-,N/A,,Overcast,10,2013-12-20 22:35:00
4:55 PM,27.0,25.2,93,29.81,4.0,North,4.6,-,N/A,,Overcast,10,2013-12-20 22:55:00
5:15 PM,26.4,24.6,93,29.81,5.0,North,5.8,-,N/A,,Overcast,10,2013-12-20 23:15:00
5:35 PM,26.1,24.3,93,29.81,4.0,NNE,5.8,-,N/A,,Overcast,20,2013-12-20 23:35:00
5:55 PM,25.7,23.9,93,29.83,3.0,North,4.6,-,N/A,,Overcast,360,2013-12-20 23:55:00
6:15 PM,25.7,23.9,93,29.84,3.0,Calm,Calm,-,N/A,,Overcast,0,2013-12-21 00:15:00
6:35 PM,25.5,23.7,93,29.84,4.0,Calm,Calm,-,N/A,,Overcast,0,2013-12-21 00:35:00
6:55 PM,25.5,23.7,93,29.83,3.0,Calm,Calm,-,N/A,,Overcast,0,2013-12-21 00:55:00
7:15 PM,25.5,23.9,94,29.84,3.0,Calm,Calm,-,N/A,,Overcast,0,2013-12-21 01:15:00
7:35 PM,25.5,23.9,94,29.84,3.0,Calm,Calm,-,N/A,,Overcast,0,2013-12-21 01:35:00
7:55 PM,25.3,23.7,94,29.85,2.5,NNW,3.5,-,N/A,,Overcast,340,2013-12-21 01:55:00
8:15 PM,25.2,23.4,93,29.84,3.0,Calm,Calm,-,N/A,,Overcast,0,2013-12-21 02:15:00
8:35 PM,25.2,23.5,94,29.84,2.5,Calm,Calm,-,N/A,,Overcast,0,2013-12-21 02:35:00
8:55 PM,25.3,23.7,94,29.84,2.5,Calm,Calm,-,N/A,,Overcast,0,2013-12-21 02:55:00
9:15 PM,25.3,23.7,94,29.82,2.0,Calm,Calm,-,N/A,,Overcast,0,2013-12-21 03:15:00
9:35 PM,25.3,23.7,94,29.82,2.0,Calm,Calm,-,N/A,,Overcast,0,2013-12-21 03:35:00
9:55 PM,25.3,23.7,94,29.83,2.0,NNW,3.5,-,N/A,,Overcast,340,2013-12-21 03:55:00
10:15 PM,25.3,23.7,94,29.82,2.5,Calm,Calm,-,N/A,,Overcast,0,2013-12-21 04:15:00
10:35 PM,25.0,23.2,93,29.82,2.5,Calm,Calm,-,N/A,,Overcast,0,2013-12-21 04:35:00
10:55 PM,24.8,23.2,94,29.82,2.0,Calm,Calm,-,N/A,,Overcast,0,2013-12-21 04:55:00
11:15 PM,24.8,23.4,94,29.82,1.8,Calm,Calm,-,N/A,,Overcast,0,2013-12-21 05:15:00
11:35 PM,24.8,23.4,94,29.81,2.0,Calm,Calm,-,N/A,,Overcast,0,2013-12-21 05:35:00
11:55 PM,24.8,23.4,94,29.81,2.0,Calm,Calm,-,N/A,,Overcast,0,2013-12-21 05:55:00